sensor_id;sensor_type;location;lat;lon;timestamp;P1;durP1;ratioP1;P2;durP2;ratioP2
4182;SDS011;2105;52.300;9.182;2023-04-03T00:00:05;11.40;;;9.03;;
4182;SDS011;2105;52.300;9.182;2023-04-03T00:02:33;10.03;;;8.97;;
4182;SDS011;2105;52.300;9.182;2023-04-03T00:05:00;10.43;;;9.33;;
4182;SDS011;2105;52.300;9.182;2023-04-03T00:07:27;10.63;;;9.83;;
4182;SDS011;2105;52.300;9.182;2023-04-03T00:09:53;10.00;;;9.10;;
4182;SDS011;2105;52.300;9.182;2023-04-03T00:12:20;13.83;;;8.93;;
4182;SDS011;2105;52.300;9.182;2023-04-03T00:14:48;9.80;;;8.87;;
4182;SDS011;2105;52.300;9.182;2023-04-03T00:17:15;9.20;;;8.60;;
4182;SDS011;2105;52.300;9.182;2023-04-03T00:19:42;9.53;;;8.77;;
4182;SDS011;2105;52.300;9.182;2023-04-03T00:22:08;9.50;;;8.80;;
4182;SDS011;2105;52.300;9.182;2023-04-03T00:24:35;9.27;;;8.40;;
4182;SDS011;2105;52.300;9.182;2023-04-03T00:27:02;10.40;;;8.57;;
4182;SDS011;2105;52.300;9.182;2023-04-03T00:29:29;9.80;;;9.10;;
4182;SDS011;2105;52.300;9.182;2023-04-03T00:31:57;10.13;;;9.10;;
4182;SDS011;2105;52.300;9.182;2023-04-03T00:34:23;9.90;;;9.00;;
4182;SDS011;2105;52.300;9.182;2023-04-03T00:36:50;10.50;;;9.60;;
4182;SDS011;2105;52.300;9.182;2023-04-03T00:39:17;9.70;;;9.00;;
4182;SDS011;2105;52.300;9.182;2023-04-03T00:41:44;10.10;;;9.10;;
4182;SDS011;2105;52.300;9.182;2023-04-03T00:44:18;9.80;;;9.00;;
4182;SDS011;2105;52.300;9.182;2023-04-03T00:46:46;10.00;;;9.13;;
4182;SDS011;2105;52.300;9.182;2023-04-03T00:49:14;9.80;;;8.63;;
4182;SDS011;2105;52.300;9.182;2023-04-03T00:51:41;10.17;;;9.37;;
4182;SDS011;2105;52.300;9.182;2023-04-03T00:54:08;9.97;;;9.17;;
4182;SDS011;2105;52.300;9.182;2023-04-03T00:56:35;10.07;;;9.17;;
4182;SDS011;2105;52.300;9.182;2023-04-03T00:59:04;12.43;;;9.60;;
4182;SDS011;2105;52.300;9.182;2023-04-03T01:01:34;14.50;;;9.77;;
4182;SDS011;2105;52.300;9.182;2023-04-03T01:04:02;10.03;;;9.20;;
4182;SDS011;2105;52.300;9.182;2023-04-03T01:06:33;10.07;;;9.27;;
4182;SDS011;2105;52.300;9.182;2023-04-03T01:09:02;10.83;;;9.93;;
4182;SDS011;2105;52.300;9.182;2023-04-03T01:11:30;10.00;;;9.30;;
4182;SDS011;2105;52.300;9.182;2023-04-03T01:16:27;9.57;;;8.77;;
4182;SDS011;2105;52.300;9.182;2023-04-03T01:18:55;9.93;;;9.13;;
4182;SDS011;2105;52.300;9.182;2023-04-03T01:24:31;10.90;;;8.93;;
4182;SDS011;2105;52.300;9.182;2023-04-03T01:27:00;9.40;;;8.60;;
4182;SDS011;2105;52.300;9.182;2023-04-03T01:29:29;11.13;;;9.70;;
4182;SDS011;2105;52.300;9.182;2023-04-03T01:31:57;12.60;;;9.90;;
4182;SDS011;2105;52.300;9.182;2023-04-03T01:34:26;9.63;;;8.93;;
4182;SDS011;2105;52.300;9.182;2023-04-03T01:36:54;10.00;;;9.13;;
4182;SDS011;2105;52.300;9.182;2023-04-03T01:39:21;9.93;;;9.00;;
4182;SDS011;2105;52.300;9.182;2023-04-03T01:41:48;10.73;;;9.10;;
4182;SDS011;2105;52.300;9.182;2023-04-03T01:44:15;12.90;;;9.00;;
4182;SDS011;2105;52.300;9.182;2023-04-03T01:46:42;9.30;;;8.60;;
4182;SDS011;2105;52.300;9.182;2023-04-03T01:49:10;9.77;;;9.17;;
4182;SDS011;2105;52.300;9.182;2023-04-03T01:51:36;9.90;;;8.90;;
4182;SDS011;2105;52.300;9.182;2023-04-03T01:54:03;14.37;;;9.20;;
4182;SDS011;2105;52.300;9.182;2023-04-03T01:56:30;9.87;;;9.07;;
4182;SDS011;2105;52.300;9.182;2023-04-03T01:58:57;9.60;;;8.87;;
4182;SDS011;2105;52.300;9.182;2023-04-03T02:01:23;11.43;;;9.53;;
4182;SDS011;2105;52.300;9.182;2023-04-03T02:03:50;10.60;;;9.57;;
4182;SDS011;2105;52.300;9.182;2023-04-03T02:06:18;10.60;;;9.50;;
4182;SDS011;2105;52.300;9.182;2023-04-03T02:08:45;9.50;;;8.70;;
4182;SDS011;2105;52.300;9.182;2023-04-03T02:11:12;10.10;;;9.40;;
4182;SDS011;2105;52.300;9.182;2023-04-03T02:13:39;10.33;;;9.30;;
4182;SDS011;2105;52.300;9.182;2023-04-03T02:16:06;11.93;;;9.33;;
4182;SDS011;2105;52.300;9.182;2023-04-03T02:18:34;10.53;;;9.30;;
4182;SDS011;2105;52.300;9.182;2023-04-03T02:21:02;10.03;;;9.10;;
4182;SDS011;2105;52.300;9.182;2023-04-03T02:23:31;10.00;;;9.27;;
4182;SDS011;2105;52.300;9.182;2023-04-03T02:26:08;9.93;;;8.90;;
4182;SDS011;2105;52.300;9.182;2023-04-03T02:28:36;14.17;;;9.70;;
4182;SDS011;2105;52.300;9.182;2023-04-03T02:31:03;10.90;;;10.10;;
4182;SDS011;2105;52.300;9.182;2023-04-03T02:33:31;9.70;;;9.10;;
4182;SDS011;2105;52.300;9.182;2023-04-03T02:35:58;9.67;;;8.97;;
4182;SDS011;2105;52.300;9.182;2023-04-03T02:38:25;10.37;;;9.50;;
4182;SDS011;2105;52.300;9.182;2023-04-03T02:40:53;11.10;;;10.00;;
4182;SDS011;2105;52.300;9.182;2023-04-03T02:43:25;11.00;;;9.80;;
4182;SDS011;2105;52.300;9.182;2023-04-03T02:45:51;12.80;;;9.70;;
4182;SDS011;2105;52.300;9.182;2023-04-03T02:48:18;10.10;;;9.10;;
4182;SDS011;2105;52.300;9.182;2023-04-03T02:50:45;10.77;;;9.67;;
4182;SDS011;2105;52.300;9.182;2023-04-03T02:53:11;12.93;;;9.20;;
4182;SDS011;2105;52.300;9.182;2023-04-03T02:55:38;11.73;;;9.67;;
4182;SDS011;2105;52.300;9.182;2023-04-03T02:58:06;10.67;;;9.70;;
4182;SDS011;2105;52.300;9.182;2023-04-03T03:00:33;9.83;;;9.13;;
4182;SDS011;2105;52.300;9.182;2023-04-03T03:03:00;10.63;;;9.60;;
4182;SDS011;2105;52.300;9.182;2023-04-03T03:05:27;25.20;;;10.70;;
4182;SDS011;2105;52.300;9.182;2023-04-03T03:07:55;10.10;;;9.27;;
4182;SDS011;2105;52.300;9.182;2023-04-03T03:10:21;11.23;;;9.57;;
4182;SDS011;2105;52.300;9.182;2023-04-03T03:12:48;11.73;;;9.83;;
4182;SDS011;2105;52.300;9.182;2023-04-03T03:15:17;11.20;;;9.30;;
4182;SDS011;2105;52.300;9.182;2023-04-03T03:17:44;10.60;;;9.60;;
4182;SDS011;2105;52.300;9.182;2023-04-03T03:20:11;10.00;;;9.20;;
4182;SDS011;2105;52.300;9.182;2023-04-03T03:22:40;10.93;;;9.73;;
4182;SDS011;2105;52.300;9.182;2023-04-03T03:25:07;10.17;;;9.20;;
4182;SDS011;2105;52.300;9.182;2023-04-03T03:27:34;11.83;;;9.40;;
4182;SDS011;2105;52.300;9.182;2023-04-03T03:30:01;10.23;;;9.17;;
4182;SDS011;2105;52.300;9.182;2023-04-03T03:32:29;11.03;;;8.83;;
4182;SDS011;2105;52.300;9.182;2023-04-03T03:34:55;10.17;;;9.13;;
4182;SDS011;2105;52.300;9.182;2023-04-03T03:37:22;13.13;;;9.30;;
4182;SDS011;2105;52.300;9.182;2023-04-03T03:39:48;10.83;;;9.90;;
4182;SDS011;2105;52.300;9.182;2023-04-03T03:42:15;10.43;;;9.07;;
4182;SDS011;2105;52.300;9.182;2023-04-03T03:44:42;10.60;;;9.20;;
4182;SDS011;2105;52.300;9.182;2023-04-03T03:47:08;9.37;;;8.57;;
4182;SDS011;2105;52.300;9.182;2023-04-03T03:49:37;9.50;;;8.90;;
4182;SDS011;2105;52.300;9.182;2023-04-03T03:52:03;8.97;;;8.20;;
4182;SDS011;2105;52.300;9.182;2023-04-03T03:54:30;12.30;;;8.33;;
4182;SDS011;2105;52.300;9.182;2023-04-03T03:56:57;8.27;;;7.57;;
4182;SDS011;2105;52.300;9.182;2023-04-03T03:59:23;9.23;;;8.40;;
4182;SDS011;2105;52.300;9.182;2023-04-03T04:01:51;11.07;;;8.20;;
4182;SDS011;2105;52.300;9.182;2023-04-03T04:04:17;9.33;;;8.07;;
4182;SDS011;2105;52.300;9.182;2023-04-03T04:06:46;13.03;;;8.20;;
4182;SDS011;2105;52.300;9.182;2023-04-03T04:09:12;11.60;;;8.20;;
4182;SDS011;2105;52.300;9.182;2023-04-03T04:11:39;9.00;;;8.10;;
4182;SDS011;2105;52.300;9.182;2023-04-03T04:14:06;9.50;;;8.57;;
4182;SDS011;2105;52.300;9.182;2023-04-03T04:16:35;14.23;;;8.77;;
4182;SDS011;2105;52.300;9.182;2023-04-03T04:19:01;9.77;;;8.83;;
4182;SDS011;2105;52.300;9.182;2023-04-03T04:21:28;8.90;;;8.07;;
4182;SDS011;2105;52.300;9.182;2023-04-03T04:23:56;9.70;;;8.80;;
4182;SDS011;2105;52.300;9.182;2023-04-03T04:26:23;11.97;;;8.83;;
4182;SDS011;2105;52.300;9.182;2023-04-03T04:28:49;10.53;;;9.07;;
4182;SDS011;2105;52.300;9.182;2023-04-03T04:31:16;15.10;;;9.90;;
4182;SDS011;2105;52.300;9.182;2023-04-03T04:33:43;10.70;;;9.43;;
4182;SDS011;2105;52.300;9.182;2023-04-03T04:36:09;13.93;;;9.70;;
4182;SDS011;2105;52.300;9.182;2023-04-03T04:38:36;10.70;;;9.60;;
4182;SDS011;2105;52.300;9.182;2023-04-03T04:41:04;9.87;;;8.87;;
4182;SDS011;2105;52.300;9.182;2023-04-03T04:43:31;9.67;;;8.70;;
4182;SDS011;2105;52.300;9.182;2023-04-03T04:46:01;9.10;;;8.50;;
4182;SDS011;2105;52.300;9.182;2023-04-03T04:48:29;10.70;;;9.07;;
4182;SDS011;2105;52.300;9.182;2023-04-03T04:50:56;9.20;;;8.50;;
4182;SDS011;2105;52.300;9.182;2023-04-03T04:53:22;11.67;;;9.13;;
4182;SDS011;2105;52.300;9.182;2023-04-03T04:55:49;10.20;;;9.20;;
4182;SDS011;2105;52.300;9.182;2023-04-03T04:58:18;12.17;;;8.70;;
4182;SDS011;2105;52.300;9.182;2023-04-03T05:00:44;10.97;;;8.80;;
4182;SDS011;2105;52.300;9.182;2023-04-03T05:03:11;9.50;;;8.90;;
4182;SDS011;2105;52.300;9.182;2023-04-03T05:05:38;12.37;;;8.40;;
4182;SDS011;2105;52.300;9.182;2023-04-03T05:08:05;11.63;;;9.37;;
4182;SDS011;2105;52.300;9.182;2023-04-03T05:10:33;8.90;;;8.20;;
4182;SDS011;2105;52.300;9.182;2023-04-03T05:13:00;9.53;;;8.63;;
4182;SDS011;2105;52.300;9.182;2023-04-03T05:15:28;10.97;;;8.93;;
4182;SDS011;2105;52.300;9.182;2023-04-03T05:17:54;12.03;;;8.90;;
4182;SDS011;2105;52.300;9.182;2023-04-03T05:20:21;9.37;;;8.60;;
4182;SDS011;2105;52.300;9.182;2023-04-03T05:22:47;12.00;;;8.50;;
4182;SDS011;2105;52.300;9.182;2023-04-03T05:25:14;9.63;;;8.67;;
4182;SDS011;2105;52.300;9.182;2023-04-03T05:27:41;11.90;;;9.03;;
4182;SDS011;2105;52.300;9.182;2023-04-03T05:30:08;9.73;;;8.80;;
4182;SDS011;2105;52.300;9.182;2023-04-03T05:32:36;12.13;;;10.80;;
4182;SDS011;2105;52.300;9.182;2023-04-03T05:35:03;12.57;;;9.43;;
4182;SDS011;2105;52.300;9.182;2023-04-03T05:37:32;12.60;;;9.93;;
4182;SDS011;2105;52.300;9.182;2023-04-03T05:39:59;10.60;;;9.70;;
4182;SDS011;2105;52.300;9.182;2023-04-03T05:42:26;15.37;;;9.50;;
4182;SDS011;2105;52.300;9.182;2023-04-03T05:44:53;10.30;;;9.30;;
4182;SDS011;2105;52.300;9.182;2023-04-03T05:47:19;10.43;;;9.53;;
4182;SDS011;2105;52.300;9.182;2023-04-03T05:49:48;10.90;;;9.90;;
4182;SDS011;2105;52.300;9.182;2023-04-03T05:52:18;11.37;;;9.50;;
4182;SDS011;2105;52.300;9.182;2023-04-03T05:54:47;10.80;;;9.70;;
4182;SDS011;2105;52.300;9.182;2023-04-03T05:57:15;13.00;;;9.70;;
4182;SDS011;2105;52.300;9.182;2023-04-03T05:59:41;10.63;;;9.63;;
4182;SDS011;2105;52.300;9.182;2023-04-03T06:02:10;11.77;;;9.83;;
4182;SDS011;2105;52.300;9.182;2023-04-03T06:04:37;14.70;;;9.97;;
4182;SDS011;2105;52.300;9.182;2023-04-03T06:07:05;13.13;;;10.17;;
4182;SDS011;2105;52.300;9.182;2023-04-03T06:09:32;11.57;;;10.50;;
4182;SDS011;2105;52.300;9.182;2023-04-03T06:12:00;12.03;;;10.73;;
4182;SDS011;2105;52.300;9.182;2023-04-03T06:14:27;11.77;;;10.63;;
4182;SDS011;2105;52.300;9.182;2023-04-03T06:16:53;14.43;;;10.53;;
4182;SDS011;2105;52.300;9.182;2023-04-03T06:19:21;12.70;;;11.37;;
4182;SDS011;2105;52.300;9.182;2023-04-03T06:21:48;12.30;;;10.87;;
4182;SDS011;2105;52.300;9.182;2023-04-03T06:24:16;11.70;;;10.70;;
4182;SDS011;2105;52.300;9.182;2023-04-03T06:26:44;12.47;;;11.37;;
4182;SDS011;2105;52.300;9.182;2023-04-03T06:29:11;12.73;;;11.43;;
4182;SDS011;2105;52.300;9.182;2023-04-03T06:31:38;12.90;;;11.60;;
4182;SDS011;2105;52.300;9.182;2023-04-03T06:34:05;14.40;;;11.70;;
4182;SDS011;2105;52.300;9.182;2023-04-03T06:36:32;12.67;;;11.50;;
4182;SDS011;2105;52.300;9.182;2023-04-03T06:38:59;14.93;;;11.70;;
4182;SDS011;2105;52.300;9.182;2023-04-03T06:41:27;13.77;;;12.50;;
4182;SDS011;2105;52.300;9.182;2023-04-03T06:43:54;14.77;;;13.37;;
4182;SDS011;2105;52.300;9.182;2023-04-03T06:46:23;14.77;;;13.40;;
4182;SDS011;2105;52.300;9.182;2023-04-03T06:48:50;16.40;;;14.60;;
4182;SDS011;2105;52.300;9.182;2023-04-03T06:51:19;15.40;;;13.83;;
4182;SDS011;2105;52.300;9.182;2023-04-03T06:53:47;20.83;;;13.13;;
4182;SDS011;2105;52.300;9.182;2023-04-03T06:56:14;15.20;;;13.70;;
4182;SDS011;2105;52.300;9.182;2023-04-03T06:58:43;15.03;;;13.43;;
4182;SDS011;2105;52.300;9.182;2023-04-03T07:01:11;17.57;;;15.57;;
4182;SDS011;2105;52.300;9.182;2023-04-03T07:03:39;13.53;;;12.33;;
4182;SDS011;2105;52.300;9.182;2023-04-03T07:06:06;14.77;;;13.47;;
4182;SDS011;2105;52.300;9.182;2023-04-03T07:08:35;17.00;;;15.17;;
4182;SDS011;2105;52.300;9.182;2023-04-03T07:11:02;15.93;;;14.50;;
4182;SDS011;2105;52.300;9.182;2023-04-03T07:13:29;13.63;;;12.53;;
4182;SDS011;2105;52.300;9.182;2023-04-03T07:15:57;16.13;;;13.70;;
4182;SDS011;2105;52.300;9.182;2023-04-03T07:18:23;14.57;;;13.40;;
4182;SDS011;2105;52.300;9.182;2023-04-03T07:20:50;14.80;;;13.47;;
4182;SDS011;2105;52.300;9.182;2023-04-03T07:23:17;15.23;;;13.73;;
4182;SDS011;2105;52.300;9.182;2023-04-03T07:25:44;14.57;;;13.20;;
4182;SDS011;2105;52.300;9.182;2023-04-03T07:28:11;14.47;;;13.20;;
4182;SDS011;2105;52.300;9.182;2023-04-03T07:30:44;14.90;;;13.70;;
4182;SDS011;2105;52.300;9.182;2023-04-03T07:33:13;16.07;;;14.60;;
4182;SDS011;2105;52.300;9.182;2023-04-03T07:35:41;14.13;;;12.80;;
4182;SDS011;2105;52.300;9.182;2023-04-03T07:38:09;24.73;;;13.37;;
4182;SDS011;2105;52.300;9.182;2023-04-03T07:40:36;18.07;;;13.77;;
4182;SDS011;2105;52.300;9.182;2023-04-03T07:43:03;13.90;;;12.80;;
4182;SDS011;2105;52.300;9.182;2023-04-03T07:45:31;14.33;;;12.97;;
4182;SDS011;2105;52.300;9.182;2023-04-03T07:47:58;14.30;;;12.87;;
4182;SDS011;2105;52.300;9.182;2023-04-03T07:50:28;17.70;;;12.57;;
4182;SDS011;2105;52.300;9.182;2023-04-03T07:52:55;13.70;;;12.40;;
4182;SDS011;2105;52.300;9.182;2023-04-03T07:55:22;17.63;;;12.27;;
4182;SDS011;2105;52.300;9.182;2023-04-03T07:57:49;14.47;;;12.73;;
4182;SDS011;2105;52.300;9.182;2023-04-03T08:00:16;15.10;;;12.40;;
4182;SDS011;2105;52.300;9.182;2023-04-03T08:02:44;12.70;;;11.80;;
4182;SDS011;2105;52.300;9.182;2023-04-03T08:05:15;14.53;;;12.67;;
4182;SDS011;2105;52.300;9.182;2023-04-03T08:07:43;13.10;;;11.90;;
4182;SDS011;2105;52.300;9.182;2023-04-03T08:10:10;14.20;;;12.80;;
4182;SDS011;2105;52.300;9.182;2023-04-03T08:12:37;13.83;;;12.73;;
4182;SDS011;2105;52.300;9.182;2023-04-03T08:15:04;14.07;;;12.97;;
4182;SDS011;2105;52.300;9.182;2023-04-03T08:17:32;14.33;;;13.03;;
4182;SDS011;2105;52.300;9.182;2023-04-03T08:19:59;14.83;;;13.37;;
4182;SDS011;2105;52.300;9.182;2023-04-03T08:22:26;17.13;;;13.30;;
4182;SDS011;2105;52.300;9.182;2023-04-03T08:24:54;13.90;;;12.70;;
4182;SDS011;2105;52.300;9.182;2023-04-03T08:27:21;20.90;;;13.50;;
4182;SDS011;2105;52.300;9.182;2023-04-03T08:29:47;15.30;;;13.80;;
4182;SDS011;2105;52.300;9.182;2023-04-03T08:32:14;15.20;;;13.70;;
4182;SDS011;2105;52.300;9.182;2023-04-03T08:34:41;14.97;;;13.57;;
4182;SDS011;2105;52.300;9.182;2023-04-03T08:37:07;14.70;;;13.33;;
4182;SDS011;2105;52.300;9.182;2023-04-03T08:39:34;15.60;;;14.13;;
4182;SDS011;2105;52.300;9.182;2023-04-03T08:42:05;16.30;;;13.77;;
4182;SDS011;2105;52.300;9.182;2023-04-03T08:44:40;16.27;;;13.90;;
4182;SDS011;2105;52.300;9.182;2023-04-03T08:47:15;14.70;;;13.47;;
4182;SDS011;2105;52.300;9.182;2023-04-03T08:49:49;15.37;;;13.93;;
4182;SDS011;2105;52.300;9.182;2023-04-03T08:52:22;16.67;;;15.03;;
4182;SDS011;2105;52.300;9.182;2023-04-03T08:54:54;16.57;;;15.07;;
4182;SDS011;2105;52.300;9.182;2023-04-03T08:57:30;17.00;;;15.50;;
4182;SDS011;2105;52.300;9.182;2023-04-03T08:59:59;15.97;;;14.50;;
4182;SDS011;2105;52.300;9.182;2023-04-03T09:02:31;16.70;;;15.10;;
4182;SDS011;2105;52.300;9.182;2023-04-03T09:04:59;16.57;;;14.83;;
4182;SDS011;2105;52.300;9.182;2023-04-03T09:07:31;17.23;;;14.20;;
4182;SDS011;2105;52.300;9.182;2023-04-03T09:10:03;16.27;;;14.57;;
4182;SDS011;2105;52.300;9.182;2023-04-03T09:12:33;16.67;;;15.10;;
4182;SDS011;2105;52.300;9.182;2023-04-03T09:15:06;16.30;;;14.63;;
4182;SDS011;2105;52.300;9.182;2023-04-03T09:17:41;15.87;;;14.40;;
4182;SDS011;2105;52.300;9.182;2023-04-03T09:20:19;15.63;;;14.10;;
4182;SDS011;2105;52.300;9.182;2023-04-03T09:22:53;16.20;;;14.10;;
4182;SDS011;2105;52.300;9.182;2023-04-03T09:25:21;19.67;;;14.67;;
4182;SDS011;2105;52.300;9.182;2023-04-03T09:27:51;15.93;;;14.57;;
4182;SDS011;2105;52.300;9.182;2023-04-03T09:30:19;16.10;;;14.60;;
4182;SDS011;2105;52.300;9.182;2023-04-03T09:32:48;16.63;;;14.70;;
4182;SDS011;2105;52.300;9.182;2023-04-03T09:35:18;15.73;;;14.33;;
4182;SDS011;2105;52.300;9.182;2023-04-03T09:37:48;15.07;;;13.77;;
4182;SDS011;2105;52.300;9.182;2023-04-03T09:40:30;24.00;;;14.60;;
4182;SDS011;2105;52.300;9.182;2023-04-03T09:43:18;15.37;;;14.03;;
4182;SDS011;2105;52.300;9.182;2023-04-03T09:45:51;15.37;;;13.93;;
4182;SDS011;2105;52.300;9.182;2023-04-03T09:48:19;14.60;;;13.40;;
4182;SDS011;2105;52.300;9.182;2023-04-03T09:53:42;15.63;;;14.23;;
4182;SDS011;2105;52.300;9.182;2023-04-03T09:56:18;15.47;;;14.10;;
4182;SDS011;2105;52.300;9.182;2023-04-03T09:58:48;16.17;;;14.70;;
4182;SDS011;2105;52.300;9.182;2023-04-03T10:01:26;16.53;;;14.63;;
4182;SDS011;2105;52.300;9.182;2023-04-03T10:04:08;16.17;;;14.77;;
4182;SDS011;2105;52.300;9.182;2023-04-03T10:06:37;16.37;;;14.77;;
4182;SDS011;2105;52.300;9.182;2023-04-03T10:09:15;15.80;;;14.37;;
4182;SDS011;2105;52.300;9.182;2023-04-03T10:11:58;15.57;;;14.27;;
4182;SDS011;2105;52.300;9.182;2023-04-03T10:14:28;16.27;;;14.67;;
4182;SDS011;2105;52.300;9.182;2023-04-03T10:16:56;15.20;;;13.90;;
4182;SDS011;2105;52.300;9.182;2023-04-03T10:19:31;15.03;;;13.83;;
4182;SDS011;2105;52.300;9.182;2023-04-03T10:22:02;16.23;;;14.63;;
4182;SDS011;2105;52.300;9.182;2023-04-03T10:24:40;15.93;;;14.53;;
4182;SDS011;2105;52.300;9.182;2023-04-03T10:27:16;15.87;;;14.37;;
4182;SDS011;2105;52.300;9.182;2023-04-03T10:29:49;15.20;;;14.10;;
4182;SDS011;2105;52.300;9.182;2023-04-03T10:32:25;15.93;;;14.47;;
4182;SDS011;2105;52.300;9.182;2023-04-03T10:35:02;17.60;;;14.30;;
4182;SDS011;2105;52.300;9.182;2023-04-03T10:37:40;15.23;;;13.93;;
4182;SDS011;2105;52.300;9.182;2023-04-03T10:40:22;16.20;;;14.80;;
4182;SDS011;2105;52.300;9.182;2023-04-03T10:42:57;15.50;;;14.17;;
4182;SDS011;2105;52.300;9.182;2023-04-03T10:45:34;15.83;;;14.37;;
4182;SDS011;2105;52.300;9.182;2023-04-03T10:48:16;15.50;;;14.10;;
4182;SDS011;2105;52.300;9.182;2023-04-03T10:50:52;16.37;;;14.90;;
4182;SDS011;2105;52.300;9.182;2023-04-03T10:53:28;15.30;;;14.10;;
4182;SDS011;2105;52.300;9.182;2023-04-03T10:56:03;15.80;;;14.30;;
4182;SDS011;2105;52.300;9.182;2023-04-03T10:58:36;15.90;;;14.50;;
4182;SDS011;2105;52.300;9.182;2023-04-03T11:01:08;16.60;;;15.30;;
4182;SDS011;2105;52.300;9.182;2023-04-03T11:03:40;19.00;;;17.40;;
4182;SDS011;2105;52.300;9.182;2023-04-03T11:06:10;16.03;;;14.70;;
4182;SDS011;2105;52.300;9.182;2023-04-03T11:08:42;15.80;;;14.60;;
4182;SDS011;2105;52.300;9.182;2023-04-03T11:11:12;15.83;;;14.50;;
4182;SDS011;2105;52.300;9.182;2023-04-03T11:13:43;15.07;;;13.97;;
4182;SDS011;2105;52.300;9.182;2023-04-03T11:16:18;15.90;;;14.50;;
4182;SDS011;2105;52.300;9.182;2023-04-03T11:18:49;15.87;;;14.47;;
4182;SDS011;2105;52.300;9.182;2023-04-03T11:21:21;15.13;;;14.03;;
4182;SDS011;2105;52.300;9.182;2023-04-03T11:23:54;16.13;;;14.83;;
4182;SDS011;2105;52.300;9.182;2023-04-03T11:26:24;15.67;;;14.43;;
4182;SDS011;2105;52.300;9.182;2023-04-03T11:28:56;16.03;;;14.57;;
4182;SDS011;2105;52.300;9.182;2023-04-03T11:31:29;16.03;;;14.50;;
4182;SDS011;2105;52.300;9.182;2023-04-03T11:34:07;16.10;;;14.80;;
4182;SDS011;2105;52.300;9.182;2023-04-03T11:36:45;15.73;;;14.53;;
4182;SDS011;2105;52.300;9.182;2023-04-03T11:39:17;15.57;;;14.23;;
4182;SDS011;2105;52.300;9.182;2023-04-03T11:41:48;15.90;;;14.60;;
4182;SDS011;2105;52.300;9.182;2023-04-03T11:47:03;17.03;;;15.60;;
4182;SDS011;2105;52.300;9.182;2023-04-03T11:55:42;17.97;;;16.03;;
4182;SDS011;2105;52.300;9.182;2023-04-03T11:58:22;16.23;;;14.90;;
4182;SDS011;2105;52.300;9.182;2023-04-03T12:00:58;17.10;;;15.50;;
4182;SDS011;2105;52.300;9.182;2023-04-03T12:03:31;16.37;;;15.10;;
4182;SDS011;2105;52.300;9.182;2023-04-03T12:09:04;17.20;;;15.47;;
4182;SDS011;2105;52.300;9.182;2023-04-03T12:11:49;16.23;;;14.90;;
4182;SDS011;2105;52.300;9.182;2023-04-03T12:14:16;16.00;;;14.80;;
4182;SDS011;2105;52.300;9.182;2023-04-03T12:16:44;15.93;;;14.73;;
4182;SDS011;2105;52.300;9.182;2023-04-03T12:22:15;16.67;;;15.27;;
4182;SDS011;2105;52.300;9.182;2023-04-03T12:24:46;16.63;;;15.10;;
4182;SDS011;2105;52.300;9.182;2023-04-03T12:27:20;16.70;;;15.30;;
4182;SDS011;2105;52.300;9.182;2023-04-03T12:29:54;17.60;;;15.90;;
4182;SDS011;2105;52.300;9.182;2023-04-03T12:32:30;16.83;;;15.40;;
4182;SDS011;2105;52.300;9.182;2023-04-03T12:35:17;15.87;;;14.67;;
4182;SDS011;2105;52.300;9.182;2023-04-03T12:37:57;16.67;;;14.93;;
4182;SDS011;2105;52.300;9.182;2023-04-03T12:40:55;16.40;;;15.13;;
4182;SDS011;2105;52.300;9.182;2023-04-03T12:43:31;16.57;;;15.07;;
4182;SDS011;2105;52.300;9.182;2023-04-03T12:46:10;15.93;;;14.63;;
4182;SDS011;2105;52.300;9.182;2023-04-03T12:48:46;16.27;;;14.90;;
4182;SDS011;2105;52.300;9.182;2023-04-03T12:51:18;15.40;;;14.10;;
4182;SDS011;2105;52.300;9.182;2023-04-03T12:53:47;15.60;;;14.30;;
4182;SDS011;2105;52.300;9.182;2023-04-03T12:56:19;16.90;;;15.30;;
4182;SDS011;2105;52.300;9.182;2023-04-03T12:58:51;17.73;;;15.10;;
4182;SDS011;2105;52.300;9.182;2023-04-03T13:01:20;18.03;;;16.33;;
4182;SDS011;2105;52.300;9.182;2023-04-03T13:03:51;22.93;;;20.63;;
4182;SDS011;2105;52.300;9.182;2023-04-03T13:06:23;21.50;;;19.50;;
4182;SDS011;2105;52.300;9.182;2023-04-03T13:08:53;16.00;;;14.03;;
4182;SDS011;2105;52.300;9.182;2023-04-03T13:11:23;16.00;;;14.67;;
4182;SDS011;2105;52.300;9.182;2023-04-03T13:13:57;15.80;;;14.10;;
4182;SDS011;2105;52.300;9.182;2023-04-03T13:16:26;15.97;;;14.57;;
4182;SDS011;2105;52.300;9.182;2023-04-03T13:18:53;15.10;;;14.00;;
4182;SDS011;2105;52.300;9.182;2023-04-03T13:21:21;33.37;;;25.70;;
4182;SDS011;2105;52.300;9.182;2023-04-03T13:23:51;16.27;;;14.90;;
4182;SDS011;2105;52.300;9.182;2023-04-03T13:26:20;19.77;;;17.87;;
4182;SDS011;2105;52.300;9.182;2023-04-03T13:28:51;16.40;;;15.00;;
4182;SDS011;2105;52.300;9.182;2023-04-03T13:31:19;16.67;;;15.27;;
4182;SDS011;2105;52.300;9.182;2023-04-03T13:33:54;16.27;;;14.67;;
4182;SDS011;2105;52.300;9.182;2023-04-03T13:36:26;16.90;;;14.83;;
4182;SDS011;2105;52.300;9.182;2023-04-03T13:38:59;16.33;;;15.13;;
4182;SDS011;2105;52.300;9.182;2023-04-03T13:41:29;15.70;;;14.50;;
4182;SDS011;2105;52.300;9.182;2023-04-03T13:46:43;15.80;;;14.40;;
4182;SDS011;2105;52.300;9.182;2023-04-03T13:49:20;15.10;;;14.00;;
4182;SDS011;2105;52.300;9.182;2023-04-03T13:51:49;15.43;;;14.10;;
4182;SDS011;2105;52.300;9.182;2023-04-03T13:54:18;15.27;;;13.97;;
4182;SDS011;2105;52.300;9.182;2023-04-03T13:56:46;15.40;;;14.20;;
4182;SDS011;2105;52.300;9.182;2023-04-03T13:59:21;15.43;;;14.17;;
4182;SDS011;2105;52.300;9.182;2023-04-03T14:01:49;15.50;;;14.20;;
4182;SDS011;2105;52.300;9.182;2023-04-03T14:04:19;15.70;;;14.40;;
4182;SDS011;2105;52.300;9.182;2023-04-03T14:06:49;16.03;;;14.73;;
4182;SDS011;2105;52.300;9.182;2023-04-03T14:09:17;15.83;;;14.63;;
4182;SDS011;2105;52.300;9.182;2023-04-03T14:11:45;16.10;;;14.80;;
4182;SDS011;2105;52.300;9.182;2023-04-03T14:14:14;16.33;;;14.60;;
4182;SDS011;2105;52.300;9.182;2023-04-03T14:16:51;15.10;;;14.00;;
4182;SDS011;2105;52.300;9.182;2023-04-03T14:19:21;15.30;;;14.13;;
4182;SDS011;2105;52.300;9.182;2023-04-03T14:21:50;15.27;;;14.00;;
4182;SDS011;2105;52.300;9.182;2023-04-03T14:24:18;15.20;;;14.10;;
4182;SDS011;2105;52.300;9.182;2023-04-03T14:26:46;15.37;;;14.07;;
4182;SDS011;2105;52.300;9.182;2023-04-03T14:29:13;15.20;;;14.00;;
4182;SDS011;2105;52.300;9.182;2023-04-03T14:31:41;15.70;;;14.50;;
4182;SDS011;2105;52.300;9.182;2023-04-03T14:34:09;16.33;;;14.87;;
4182;SDS011;2105;52.300;9.182;2023-04-03T14:36:37;16.33;;;15.03;;
4182;SDS011;2105;52.300;9.182;2023-04-03T14:39:06;16.37;;;15.03;;
4182;SDS011;2105;52.300;9.182;2023-04-03T14:41:34;15.70;;;14.60;;
4182;SDS011;2105;52.300;9.182;2023-04-03T14:44:01;16.30;;;14.90;;
4182;SDS011;2105;52.300;9.182;2023-04-03T14:46:29;16.63;;;15.23;;
4182;SDS011;2105;52.300;9.182;2023-04-03T14:48:58;16.57;;;15.27;;
4182;SDS011;2105;52.300;9.182;2023-04-03T14:51:25;16.00;;;14.70;;
4182;SDS011;2105;52.300;9.182;2023-04-03T14:53:52;15.87;;;14.57;;
4182;SDS011;2105;52.300;9.182;2023-04-03T14:56:23;15.83;;;14.70;;
4182;SDS011;2105;52.300;9.182;2023-04-03T14:58:52;16.00;;;14.80;;
4182;SDS011;2105;52.300;9.182;2023-04-03T15:01:22;15.57;;;14.37;;
4182;SDS011;2105;52.300;9.182;2023-04-03T15:03:48;17.10;;;15.60;;
4182;SDS011;2105;52.300;9.182;2023-04-03T15:06:15;16.40;;;15.10;;
4182;SDS011;2105;52.300;9.182;2023-04-03T15:08:42;19.57;;;17.20;;
4182;SDS011;2105;52.300;9.182;2023-04-03T15:11:10;16.30;;;15.10;;
4182;SDS011;2105;52.300;9.182;2023-04-03T15:13:38;15.97;;;14.70;;
4182;SDS011;2105;52.300;9.182;2023-04-03T15:16:05;15.87;;;14.57;;
4182;SDS011;2105;52.300;9.182;2023-04-03T15:18:38;15.90;;;14.30;;
4182;SDS011;2105;52.300;9.182;2023-04-03T15:21:05;18.50;;;16.90;;
4182;SDS011;2105;52.300;9.182;2023-04-03T15:23:32;16.50;;;15.03;;
4182;SDS011;2105;52.300;9.182;2023-04-03T15:25:58;15.77;;;14.57;;
4182;SDS011;2105;52.300;9.182;2023-04-03T15:28:26;16.00;;;14.60;;
4182;SDS011;2105;52.300;9.182;2023-04-03T15:30:57;16.13;;;14.70;;
4182;SDS011;2105;52.300;9.182;2023-04-03T15:33:24;17.50;;;16.10;;